Check time and date!

LGTT 230730Z 03010G20KT 330V080 CAVOK 33/M00 Q1007
TAF LGTT 230700Z 2309/2318 02012KT 9999 FEW030 TEMPO 2309/2314 02012G22KT
--------------------------------------
LGMG 230700Z 30006KT CAVOK 33/12 Q1006
TAF LGMG 230700Z 2309/2318 34012KT 9999 FEW025 TEMPO 2309/2314 34012G22KT
--------------------------------------
LGTG 230720Z 33007KT CAVOK 32/03 Q1008
TAF LGTG 230500Z 2306/2315 34008KT 9999 FEW025
--------------------------------------
LGEL 230720Z 34007KT CAVOK 33/09 Q1006
TAF LGEL 230500Z 2306/2406 36010KT CAVOK BECMG 2308/2310 18010KT BECMG 2314/2316 VRB05KT
--------------------------------------
LGAV 230750Z 08013KT CAVOK 28/16 Q1007 NOSIG
TAF LGAV 230500Z 2306/2406 02010KT CAVOK TEMPO 2309/2314 02012G22KT BECMG 2320/2322 VRB05KT
--------------------------------------
LGAT 230730Z AUTO 31004KT 210V150 //// // ////// 34/03 Q1006 RE//
--------------------------------------
METAR LGAD 230720Z 18004KT CAVOK 31/20 Q1006
METAR LGAL 230720Z 06013KT CAVOK 28/11 Q1008
METAR LGAV 230750Z 08013KT CAVOK 28/16 Q1007 NOSIG
METAR LGBL 230720Z 08006KT CAVOK 28/20 Q1008
METAR LGEL 230720Z 34007KT CAVOK 33/09 Q1006
METAR LGHI 230650Z 02009G19KT CAVOK 25/17 Q1004
METAR LGIO 230720Z VRB02KT CAVOK 30/17 Q1010
METAR LGIR 230750Z 32013KT CAVOK 29/17 Q1006 NOSIG
METAR LGKF 230720Z 15006KT CAVOK 30/23 Q1006
METAR LGKL 230720Z 19005KT CAVOK 28/22 Q1007
METAR LGKO 230720Z 29010KT CAVOK 27/20 Q1004
METAR LGKP 230720Z 29025KT CAVOK 27/20 Q1004
METAR LGKR 230750Z 12005KT CAVOK 29/23 Q1006 NOSIG
METAR LGKV 230720Z 11004KT CAVOK 28/14 Q1008
METAR LGKZ 230650Z 00000KT CAVOK 28/11 Q1012
METAR LGLM 230720Z 03017G27KT CAVOK 24/17 Q1007
METAR LGLR 230650Z VRB03KT CAVOK 30/14 Q1008 BLU
METAR LGMK 230720Z 36022G32KT 9999 FEW008 23/15 Q1006 WS R34
METAR LGMT 230720Z 35010KT 260V360 CAVOK 26/18 Q1006
METAR LGNX 230650Z 02012KT CAVOK 25/20 Q1005
METAR LGPA 230720Z 32007KT CAVOK 25/18 Q1005
METAR LGPZ 230720Z 06006KT CAVOK 31/22 Q1006
METAR LGRP 230750Z 25018KT CAVOK 27/22 Q1003 NOSIG
METAR LGRX 230720Z 04007KT CAVOK 31/15 Q1006
METAR LGSA 230720Z 29005KT CAVOK 29/18 Q1007
METAR LGSK 230720Z 03007KT CAVOK 27/19 Q1008
METAR LGSM 230720Z 01008KT 320V060 CAVOK 28/15 Q1004
METAR LGSO 230650Z 36014KT CAVOK 25/18 Q1006
METAR LGSR 230720Z 30006KT CAVOK 28/18 Q1005
METAR LGSY 230650Z 36010KT 9999 FEW025 24/18 Q1007 BLU
METAR LGTG 230650Z 31007KT CAVOK 31/08 Q1008 BLU
METAR LGTS 230720Z 32007KT 290V360 9999 FEW025 28/21 Q1009 NOSIG
METAR LGZA 230720Z 14005KT CAVOK 30/22 Q1007

--------------------------------------
TAF LGAD 230500Z 2306/2315 26010KT 9999 FEW025
TAF LGAL 230500Z 2306/2315 06015KT CAVOK
TAF LGAV 230500Z 2306/2406 02010KT CAVOK TEMPO 2309/2314 02012G22KT BECMG 2320/2322 VRB05KT
TAF LGBL 230500Z 2306/2315 28006KT 9999 FEW030 BECMG 2307/2309 09010KT
TAF LGEL 230500Z 2306/2406 36010KT CAVOK BECMG 2308/2310 18010KT BECMG 2314/2316 VRB05KT
TAF LGHI 230500Z 2306/2315 01018KT CAVOK
TAF LGIO 230500Z 2306/2315 VRB03KT 9999 FEW025 BECMG 2310/2312 FEW025 SCT080 PROB30 TEMPO 2312/2315 FEW020TCU SCT080
TAF LGIR 230500Z 2306/2406 VRB05KT CAVOK BECMG 2306/2308 32012KT BECMG 2318/2320 VRB05KT
TAF LGKC 230500Z 2306/2315 VRB05KT CAVOK TEMPO 2309/2312 08010KT
TAF LGKF 230500Z 2306/2315 VRB05KT 9999 FEW025 BECMG 2307/2309 25010KT
TAF LGKL 230500Z 2306/2315 VRB03KT 9999 FEW025 BECMG 2309/2311 16010KT
TAF LGKO 230500Z 2306/2406 31014KT CAVOK
TAF LGKR 230500Z 2306/2406 VRB05KT CAVOK BECMG 2320/2322 28010KT
TAF LGKV 230500Z 2306/2406 VRB03KT CAVOK BECMG 2310/2312 22013KT BECMG 2316/2318 VRB03KT
TAF LGLM 230500Z 2306/2315 01012KT CAVOK
TAF LGLR 230500Z 2306/2315 VRB03KT 9999 FEW030 BECMG 2307/2309 09008KT
TAF LGMK 230500Z 2306/2315 35023KT CAVOK TEMPO 2306/2315 35018G28KT
TAF LGMT 230500Z 2306/2315 35015KT CAVOK
TAF LGPZ 230500Z 2306/2406 VRB05KT 9999 FEW025 BECMG 2309/2311 27012KT
TAF LGRP 230500Z 2306/2406 24015KT 9999 FEW020
TAF LGRX 230500Z 2306/2315 VRB03KT 9999 FEW025 BECMG 2310/2312 27010KT
TAF LGSA 230500Z 2306/2406 VRB05KT CAVOK TEMPO 2400/2404 29010KT
TAF LGSK 230500Z 2306/2315 02010KT CAVOK
TAF LGSM 230500Z 2306/2315 30008KT CAVOK
TAF LGSR 230500Z 2306/2406 29012KT CAVOK
TAF LGST 230500Z 2306/2315 29012KT CAVOK TEMPO 2306/2312 29012G22KT
TAF LGSY 230500Z 2306/2315 34012KT CAVOK
TAF LGTG 230500Z 2306/2315 34008KT 9999 FEW025
TAF LGTL 230500Z 2306/2315 35008KT CAVOK
TAF LGTS 230500Z 2306/2406 VRB03KT CAVOK BECMG 2310/2312 16013KT BECMG 2320/2322 VRB03KT
TAF LGZA 230500Z 2306/2315 VRB05KT CAVOK BECMG 2309/2311 29010KT 9999 FEW015